createdAt,value
2018-02-10T00:02:22.678Z,57.80
2018-02-10T00:04:50.350Z,58.30
2018-02-10T00:07:18.878Z,57.80
2018-02-10T00:09:46.656Z,58.30
2018-02-10T00:12:15.075Z,58.30
2018-02-10T00:14:43.536Z,57.80
2018-02-10T00:17:11.308Z,57.60
2018-02-10T00:19:38.985Z,57.60
2018-02-10T00:22:06.965Z,57.70
2018-02-10T00:24:36.337Z,57.60
2018-02-10T00:27:04.025Z,57.70
2018-02-10T00:29:31.990Z,57.60
2018-02-10T00:31:59.641Z,57.70
2018-02-10T00:34:27.325Z,57.80
2018-02-10T00:36:55.045Z,57.70
2018-02-10T00:39:22.731Z,57.80
2018-02-10T00:41:50.508Z,57.70
2018-02-10T00:44:19.442Z,57.70
2018-02-10T00:46:47.974Z,57.90
2018-02-10T00:49:15.670Z,57.90
2018-02-10T00:51:44.141Z,57.90
2018-02-10T00:54:11.839Z,57.90
2018-02-10T00:56:40.293Z,58.20
2018-02-10T00:59:09.460Z,58.50
2018-02-10T01:01:37.317Z,58.50
2018-02-10T01:04:05.838Z,58.60
2018-02-10T01:06:34.485Z,58.70
2018-02-10T01:09:02.193Z,58.60
2018-02-10T01:11:30.630Z,58.70
2018-02-10T01:13:59.797Z,58.70
2018-02-10T01:16:27.564Z,58.70
2018-02-10T01:18:55.844Z,59.00
2018-02-10T01:21:24.290Z,60.00
2018-02-10T01:23:52.849Z,59.60
2018-02-10T01:26:20.505Z,59.60
2018-02-10T01:28:48.244Z,59.70
2018-02-10T01:31:16.650Z,59.80
2018-02-10T01:33:45.204Z,59.90
2018-02-10T01:36:13.076Z,59.90
2018-02-10T01:38:41.066Z,59.70
2018-02-10T01:41:08.721Z,59.70
2018-02-10T01:43:36.622Z,59.60
2018-02-10T01:46:06.059Z,59.80
2018-02-10T01:48:33.935Z,59.80
2018-02-10T01:51:01.934Z,59.50
2018-02-10T01:53:29.585Z,59.30
2018-02-10T01:55:57.544Z,59.50
2018-02-10T01:58:25.809Z,59.30
2018-02-10T02:00:54.201Z,59.10
2018-02-10T02:03:22.916Z,59.10
2018-02-10T02:05:51.592Z,59.30
2018-02-10T02:08:19.421Z,59.30
2018-02-10T02:10:47.222Z,59.50
2018-02-10T02:13:15.724Z,59.60
2018-02-10T02:15:43.527Z,59.60
2018-02-10T02:18:11.241Z,59.70
2018-02-10T02:20:39.776Z,59.50
2018-02-10T02:23:07.649Z,59.50
2018-02-10T02:25:36.327Z,59.90
2018-02-10T02:28:04.193Z,59.90
2018-02-10T02:30:32.061Z,59.80
2018-02-10T02:32:59.933Z,59.80
2018-02-10T02:35:28.645Z,59.80
2018-02-10T02:37:57.297Z,59.90
2018-02-10T02:40:24.990Z,59.90
2018-02-10T02:42:52.829Z,60.00
2018-02-10T02:45:21.329Z,60.30
2018-02-10T02:47:49.001Z,60.20
2018-02-10T02:50:17.661Z,60.40
2018-02-10T02:52:46.952Z,60.50
2018-02-10T02:55:14.640Z,60.40
2018-02-10T02:57:42.470Z,60.50
2018-02-10T03:00:11.256Z,60.40
2018-02-10T03:02:39.659Z,60.50
2018-02-10T03:05:08.320Z,60.20
2018-02-10T03:07:36.084Z,60.00
2018-02-10T03:10:03.954Z,60.50
2018-02-10T03:12:31.782Z,60.60
2018-02-10T03:14:59.578Z,60.80
2018-02-10T03:17:27.273Z,60.70
2018-02-10T03:19:55.625Z,60.90
2018-02-10T03:22:23.303Z,61.00
2018-02-10T03:24:51.143Z,61.00
2018-02-10T03:27:18.840Z,61.10
2018-02-10T03:29:47.391Z,61.00
2018-02-10T03:32:16.380Z,61.00
2018-02-10T03:34:44.843Z,61.00
2018-02-10T03:37:12.850Z,61.00
2018-02-10T03:39:40.595Z,60.90
2018-02-10T03:42:08.457Z,61.60
2018-02-10T03:44:36.102Z,61.00
2018-02-10T03:47:03.884Z,61.00
2018-02-10T03:49:31.747Z,60.90
2018-02-10T03:51:59.390Z,61.20
2018-02-10T03:54:27.298Z,61.30
2018-02-10T03:56:55.140Z,61.40
2018-02-10T03:59:22.777Z,61.20
2018-02-10T04:01:50.568Z,61.30
2018-02-10T04:04:18.429Z,61.30
2018-02-10T04:06:46.140Z,61.50
2018-02-10T04:09:14.673Z,61.30
2018-02-10T04:11:42.435Z,61.30
2018-02-10T04:14:10.251Z,61.40
2018-02-10T04:16:38.733Z,61.40
2018-02-10T04:19:07.992Z,61.50
2018-02-10T04:21:35.743Z,61.50
2018-02-10T04:24:04.222Z,61.40
2018-02-10T04:26:31.945Z,61.50
2018-02-10T04:29:00.366Z,61.50
2018-02-10T04:31:28.128Z,61.70
2018-02-10T04:33:56.499Z,61.70
2018-02-10T04:36:24.748Z,61.50
2018-02-10T04:38:53.168Z,61.50
2018-02-10T04:41:21.024Z,61.60
2018-02-10T04:43:49.606Z,61.50
2018-02-10T04:46:17.337Z,61.80
2018-02-10T04:48:45.063Z,61.70
2018-02-10T04:51:13.002Z,62.00
2018-02-10T04:53:40.968Z,62.00
2018-02-10T04:56:08.860Z,62.00
2018-02-10T04:58:38.235Z,62.00
2018-02-10T05:01:05.940Z,62.00
2018-02-10T05:03:34.377Z,62.10
2018-02-10T05:06:02.169Z,62.10
2018-02-10T05:08:30.008Z,61.90
2018-02-10T05:10:58.209Z,61.70
2018-02-10T05:13:27.073Z,61.70
2018-02-10T05:15:54.868Z,61.90
2018-02-10T05:18:22.594Z,61.90
2018-02-10T05:20:52.337Z,62.70
2018-02-10T05:23:20.129Z,61.90
2018-02-10T05:25:47.865Z,61.90
2018-02-10T05:28:15.697Z,62.00
2018-02-10T05:30:44.279Z,62.00
2018-02-10T05:33:12.043Z,62.00
2018-02-10T05:35:39.725Z,62.50
2018-02-10T05:38:08.346Z,61.90
2018-02-10T05:40:36.083Z,62.10
2018-02-10T05:43:03.918Z,62.30
2018-02-10T05:45:32.174Z,62.20
2018-02-10T05:48:00.455Z,62.40
2018-02-10T05:50:28.232Z,62.40
2018-02-10T05:52:56.047Z,62.40
2018-02-10T05:55:24.504Z,62.30
2018-02-10T05:57:52.156Z,62.40
2018-02-10T06:00:20.986Z,62.50
2018-02-10T06:02:48.787Z,62.40
2018-02-10T06:05:17.113Z,62.30
2018-02-10T06:07:46.469Z,62.10
2018-02-10T06:10:14.233Z,62.10
2018-02-10T06:12:42.007Z,61.90
2018-02-10T06:15:09.698Z,62.10
2018-02-10T06:17:38.116Z,62.30
2018-02-10T06:20:06.617Z,62.30
2018-02-10T06:22:35.135Z,62.50
2018-02-10T06:25:04.745Z,62.30
2018-02-10T06:27:33.774Z,62.40
2018-02-10T06:30:01.774Z,62.30
2018-02-10T06:32:29.555Z,62.30
2018-02-10T06:34:57.912Z,62.30
2018-02-10T06:37:25.673Z,62.10
2018-02-10T06:39:53.328Z,62.40
2018-02-10T06:42:21.202Z,62.20
2018-02-10T06:44:49.081Z,62.80
2018-02-10T06:47:16.970Z,62.10
2018-02-10T06:49:46.534Z,62.10
2018-02-10T06:52:14.400Z,62.10
2018-02-10T06:54:42.162Z,61.70
2018-02-10T06:57:10.128Z,61.70
2018-02-10T06:59:37.891Z,61.70
2018-02-10T07:02:06.023Z,61.80
2018-02-10T07:04:33.697Z,61.70
2018-02-10T07:07:02.027Z,61.70
2018-02-10T07:09:30.278Z,61.60
2018-02-10T07:11:58.040Z,61.60
2018-02-10T07:14:25.833Z,61.60
2018-02-10T07:16:53.671Z,61.60
2018-02-10T07:19:21.389Z,61.30
2018-02-10T07:21:49.811Z,61.40
2018-02-10T07:24:18.091Z,61.30
2018-02-10T07:26:45.761Z,61.50
2018-02-10T07:29:13.507Z,61.40
2018-02-10T07:31:42.099Z,61.20
2018-02-10T07:34:09.968Z,61.10
2018-02-10T07:36:40.571Z,61.40
2018-02-10T07:39:08.290Z,61.40
2018-02-10T07:41:36.834Z,61.10
2018-02-10T07:44:04.532Z,61.10
2018-02-10T07:46:33.076Z,60.90
2018-02-10T07:49:00.884Z,60.90
2018-02-10T07:51:29.886Z,60.70
2018-02-10T07:53:58.359Z,60.90
2018-02-10T07:56:26.998Z,60.70
2018-02-10T07:58:54.866Z,60.70
2018-02-10T08:01:23.185Z,61.10
2018-02-10T08:03:51.649Z,60.70
2018-02-10T08:06:19.309Z,60.70
2018-02-10T08:08:47.043Z,60.60
2018-02-10T08:11:14.884Z,60.80
2018-02-10T08:13:42.549Z,60.50
2018-02-10T08:16:10.647Z,60.60
2018-02-10T08:18:38.526Z,60.50
2018-02-10T08:21:06.304Z,61.40
2018-02-10T08:23:34.829Z,60.70
2018-02-10T08:26:02.583Z,60.60
2018-02-10T08:28:30.341Z,60.70
2018-02-10T08:30:58.143Z,60.70
2018-02-10T08:33:25.818Z,61.00
2018-02-10T08:35:53.492Z,60.90
2018-02-10T08:38:21.329Z,60.80
2018-02-10T08:40:49.255Z,60.70
2018-02-10T08:43:16.919Z,60.80
2018-02-10T08:45:44.721Z,60.80
2018-02-10T08:48:12.689Z,60.80
2018-02-10T08:50:41.839Z,60.80
2018-02-10T08:53:09.580Z,60.80
2018-02-10T08:55:38.058Z,60.80
2018-02-10T08:58:05.906Z,60.90
2018-02-10T09:00:33.609Z,60.80
2018-02-10T09:03:01.307Z,60.70
2018-02-10T09:05:30.104Z,60.70
2018-02-10T09:07:58.585Z,60.40
2018-02-10T09:10:26.978Z,60.60
2018-02-10T09:12:55.363Z,60.50
2018-02-10T09:15:23.047Z,60.30
2018-02-10T09:17:51.622Z,60.50
2018-02-10T09:20:20.176Z,60.10
2018-02-10T09:22:47.931Z,60.10
2018-02-10T09:25:15.739Z,60.00
2018-02-10T09:27:44.886Z,59.70
2018-02-10T09:30:12.656Z,59.60
2018-02-10T09:32:40.532Z,59.40
2018-02-10T09:35:08.285Z,59.30
2018-02-10T09:37:36.150Z,59.20
2018-02-10T09:40:04.701Z,59.10
2018-02-10T09:42:32.393Z,59.10
2018-02-10T09:45:00.158Z,59.00
2018-02-10T09:47:28.169Z,58.80
2018-02-10T09:49:56.584Z,58.80
2018-02-10T09:52:24.267Z,58.80
2018-02-10T09:54:52.141Z,58.50
2018-02-10T09:57:19.928Z,58.30
2018-02-10T09:59:47.763Z,58.30
2018-02-10T10:02:15.445Z,58.10
2018-02-10T10:04:43.495Z,57.90
2018-02-10T10:07:12.319Z,58.10
2018-02-10T10:09:40.973Z,58.20
2018-02-10T10:12:08.741Z,58.20
2018-02-10T10:14:36.604Z,57.90
2018-02-10T10:17:05.115Z,58.30
2018-02-10T10:19:33.523Z,57.30
2018-02-10T10:22:02.260Z,57.00
2018-02-10T10:24:30.678Z,56.60
2018-02-10T10:26:58.493Z,56.00
2018-02-10T10:29:26.368Z,56.30
2018-02-10T10:31:54.845Z,56.20
2018-02-10T10:34:22.717Z,55.70
2018-02-10T10:36:53.503Z,55.90
2018-02-10T10:39:21.222Z,55.90
2018-02-10T10:41:49.138Z,56.00
2018-02-10T10:44:18.830Z,56.00
2018-02-10T10:46:46.486Z,56.10
2018-02-10T10:49:14.291Z,55.70
2018-02-10T10:51:42.055Z,55.40
2018-02-10T10:54:10.261Z,55.60
2018-02-10T10:56:38.102Z,55.60
2018-02-10T10:59:05.809Z,56.00
2018-02-10T11:01:35.095Z,56.50
2018-02-10T11:04:03.535Z,56.70
2018-02-10T11:06:31.558Z,56.70
2018-02-10T11:09:00.609Z,56.60
2018-02-10T11:11:28.848Z,56.60
2018-02-10T11:13:57.215Z,56.90
2018-02-10T11:16:24.852Z,57.10
2018-02-10T11:18:53.340Z,57.30
2018-02-10T11:21:23.357Z,57.20
2018-02-10T11:23:52.396Z,56.80
2018-02-10T11:26:20.264Z,56.90
2018-02-10T11:28:48.305Z,56.90
2018-02-10T11:31:16.136Z,57.00
2018-02-10T11:33:44.578Z,57.80
2018-02-10T11:36:12.368Z,57.70
2018-02-10T11:38:40.086Z,57.10
2018-02-10T11:41:08.484Z,57.20
2018-02-10T11:43:36.247Z,56.80
2018-02-10T11:46:04.112Z,56.80
2018-02-10T11:48:32.011Z,56.30
2018-02-10T11:51:00.456Z,55.90
2018-02-10T11:53:28.183Z,55.60
2018-02-10T11:55:56.004Z,55.10
2018-02-10T11:58:23.759Z,55.00
2018-02-10T12:00:51.553Z,55.00
2018-02-10T12:03:20.049Z,54.90
2018-02-10T12:05:48.786Z,54.50
2018-02-10T12:08:16.671Z,54.50
2018-02-10T12:10:45.174Z,54.50
2018-02-10T12:13:13.632Z,53.70
2018-02-10T12:15:41.301Z,54.30
2018-02-10T12:18:09.763Z,53.50
2018-02-10T12:20:38.379Z,53.40
2018-02-10T12:23:07.422Z,53.40
2018-02-10T12:25:35.149Z,53.40
2018-02-10T12:28:04.193Z,53.40
2018-02-10T12:30:32.117Z,53.40
2018-02-10T12:32:59.792Z,54.30
2018-02-10T12:35:27.455Z,53.90
2018-02-10T12:37:55.362Z,54.00
2018-02-10T12:40:23.985Z,54.50
2018-02-10T12:42:51.864Z,54.10
2018-02-10T12:45:19.567Z,54.60
2018-02-10T12:50:53.471Z,54.20
2018-02-10T12:53:22.055Z,54.10
2018-02-10T12:55:50.693Z,54.00
2018-02-10T12:58:19.628Z,53.60
2018-02-10T13:00:47.290Z,53.60
2018-02-10T13:03:15.053Z,53.40
2018-02-10T13:05:42.822Z,53.50
2018-02-10T13:08:10.926Z,52.90
2018-02-10T13:10:38.895Z,52.40
2018-02-10T13:13:07.544Z,52.00
2018-02-10T13:15:35.922Z,52.00
2018-02-10T13:18:03.786Z,51.80
2018-02-10T13:20:31.490Z,52.10
2018-02-10T13:23:00.677Z,51.40
2018-02-10T13:25:28.612Z,51.40
2018-02-10T13:27:56.376Z,51.60
2018-02-10T13:30:24.600Z,51.80
2018-02-10T13:32:53.606Z,50.90
2018-02-10T13:35:21.464Z,50.80
2018-02-10T13:37:50.125Z,49.90
2018-02-10T13:40:19.522Z,50.60
2018-02-10T13:42:47.361Z,50.60
2018-02-10T13:45:15.693Z,51.10
2018-02-10T13:47:43.779Z,51.20
2018-02-10T13:50:11.577Z,52.00
2018-02-10T13:52:39.362Z,52.30
2018-02-10T13:55:07.913Z,53.20
2018-02-10T13:57:36.496Z,53.20
2018-02-10T14:00:04.878Z,53.30
2018-02-10T14:02:32.662Z,53.00
2018-02-10T14:05:02.537Z,52.70
2018-02-10T14:07:30.318Z,52.70
2018-02-10T14:09:59.341Z,53.10
2018-02-10T14:12:27.993Z,53.20
2018-02-10T14:14:56.602Z,53.10
2018-02-10T14:17:24.378Z,52.60
2018-02-10T14:19:52.991Z,53.00
2018-02-10T14:24:55.820Z,53.70
2018-02-10T14:27:23.604Z,53.90
2018-02-10T14:29:52.740Z,53.90
2018-02-10T14:32:21.400Z,53.90
2018-02-10T14:34:50.447Z,54.00
2018-02-10T14:37:18.809Z,54.50
2018-02-10T14:39:46.471Z,53.80
2018-02-10T14:42:14.779Z,54.10
2018-02-10T14:44:42.556Z,54.70
2018-02-10T14:47:10.295Z,54.60
2018-02-10T14:49:38.576Z,54.60
2018-02-10T14:52:06.439Z,55.20
2018-02-10T14:54:35.534Z,54.50
2018-02-10T14:57:03.299Z,54.80
2018-02-10T14:59:31.443Z,55.00
2018-02-10T15:01:59.234Z,54.80
2018-02-10T15:04:27.257Z,54.80
2018-02-10T15:06:55.886Z,54.70
2018-02-10T15:09:23.665Z,54.60
2018-02-10T15:11:51.475Z,55.00
2018-02-10T15:14:19.233Z,54.90
2018-02-10T15:16:48.243Z,54.90
2018-02-10T15:19:16.994Z,54.60
2018-02-10T15:21:44.821Z,54.60
2018-02-10T15:24:12.688Z,54.70
2018-02-10T15:26:41.199Z,55.00
2018-02-10T15:29:08.961Z,54.80
2018-02-10T15:31:48.651Z,54.80
2018-02-10T15:34:28.421Z,55.20
2018-02-10T15:36:56.209Z,55.20
2018-02-10T15:39:26.095Z,55.10
2018-02-10T15:41:53.860Z,55.10
2018-02-10T15:44:21.584Z,55.30
2018-02-10T15:46:49.591Z,55.30
2018-02-10T15:49:17.493Z,55.10
2018-02-10T15:51:45.221Z,55.20
2018-02-10T15:54:12.993Z,55.30
2018-02-10T15:56:41.466Z,55.80
2018-02-10T15:59:09.842Z,55.70
2018-02-10T16:01:37.490Z,55.90
2018-02-10T16:04:05.714Z,55.80
2018-02-10T16:06:33.401Z,55.80
2018-02-10T16:09:01.438Z,55.70
2018-02-10T16:11:29.274Z,55.50
2018-02-10T16:13:57.039Z,55.60
2018-02-10T16:16:24.840Z,55.60
2018-02-10T16:18:53.308Z,56.10
2018-02-10T16:21:21.417Z,56.10
2018-02-10T16:23:49.822Z,56.50
2018-02-10T16:26:17.523Z,55.70
2018-02-10T16:28:47.401Z,55.90
2018-02-10T16:31:15.478Z,55.90
2018-02-10T16:33:43.249Z,56.10
2018-02-10T16:36:11.033Z,55.90
2018-02-10T16:38:38.745Z,55.70
2018-02-10T16:41:06.539Z,55.50
2018-02-10T16:43:34.320Z,55.60
2018-02-10T16:46:02.167Z,55.40
2018-02-10T16:48:30.577Z,55.30
2018-02-10T16:50:58.300Z,55.60
2018-02-10T16:53:25.968Z,55.70
2018-02-10T16:55:53.665Z,55.80
2018-02-10T16:58:22.152Z,55.60
2018-02-10T17:00:50.617Z,55.50
2018-02-10T17:03:18.558Z,55.50
2018-02-10T17:05:46.847Z,55.40
2018-02-10T17:08:14.849Z,55.40
2018-02-10T17:10:42.678Z,55.30
2018-02-10T17:13:10.381Z,55.40
2018-02-10T17:15:38.407Z,55.50
2018-02-10T17:18:06.081Z,55.90
2018-02-10T17:20:35.316Z,55.80
2018-02-10T17:23:03.140Z,55.90
2018-02-10T17:25:31.358Z,55.60
2018-02-10T17:27:59.215Z,55.90
2018-02-10T17:30:26.988Z,56.00
2018-02-10T17:32:55.399Z,56.10
2018-02-10T17:35:23.695Z,56.80
2018-02-10T17:37:52.018Z,56.20
2018-02-10T17:40:19.737Z,56.10
2018-02-10T17:42:47.537Z,56.00
2018-02-10T17:45:15.499Z,56.00
2018-02-10T17:47:43.161Z,55.90
2018-02-10T17:50:12.229Z,55.90
2018-02-10T17:52:41.636Z,55.80
2018-02-10T17:55:09.470Z,56.00
2018-02-10T17:57:37.202Z,55.90
2018-02-10T18:00:04.939Z,55.60
2018-02-10T18:02:33.233Z,56.30
2018-02-10T18:05:01.900Z,56.10
2018-02-10T18:07:30.890Z,56.20
2018-02-10T18:10:00.080Z,55.90
2018-02-10T18:12:28.546Z,56.00
2018-02-10T18:14:56.206Z,56.00
2018-02-10T18:17:25.611Z,55.90
2018-02-10T18:19:53.989Z,56.70
2018-02-10T18:22:21.831Z,56.50
2018-02-10T18:24:50.397Z,56.90
2018-02-10T18:27:18.206Z,56.80
2018-02-10T18:29:46.909Z,56.30
2018-02-10T18:32:16.219Z,56.80
2018-02-10T18:34:44.982Z,56.50
2018-02-10T18:37:13.242Z,56.50
2018-02-10T18:39:41.048Z,56.60
2018-02-10T18:42:08.839Z,56.70
2018-02-10T18:44:37.129Z,57.20
2018-02-10T18:47:05.308Z,56.70
2018-02-10T18:49:33.150Z,57.10
2018-02-10T18:52:01.031Z,56.90
2018-02-10T18:54:28.764Z,56.80
2018-02-10T18:56:56.717Z,56.80
2018-02-10T18:59:24.482Z,57.10
2018-02-10T19:01:52.298Z,56.70
2018-02-10T19:04:20.743Z,56.70
2018-02-10T19:06:48.532Z,57.10
2018-02-10T19:09:16.363Z,57.00
2018-02-10T19:11:44.126Z,57.30
2018-02-10T19:14:12.028Z,57.00
2018-02-10T19:16:40.281Z,57.00
2018-02-10T19:19:08.067Z,57.30
2018-02-10T19:21:36.139Z,57.40
2018-02-10T19:24:03.920Z,56.90
2018-02-10T19:26:31.617Z,57.30
2018-02-10T19:29:00.936Z,57.20
2018-02-10T19:31:28.936Z,57.20
2018-02-10T19:33:56.695Z,56.80
2018-02-10T19:36:24.457Z,57.10
2018-02-10T19:38:52.984Z,57.50
2018-02-10T19:41:21.437Z,57.20
2018-02-10T19:43:49.289Z,57.20
2018-02-10T19:46:17.965Z,57.30
2018-02-10T19:48:45.624Z,57.60
2018-02-10T19:51:13.395Z,57.30
2018-02-10T19:53:41.770Z,57.50
2018-02-10T19:56:09.469Z,57.30
2018-02-10T19:58:37.709Z,57.20
2018-02-10T20:01:06.721Z,57.70
2018-02-10T20:03:34.668Z,57.70
2018-02-10T20:06:02.948Z,57.40
2018-02-10T20:08:31.425Z,58.30
2018-02-10T20:10:59.334Z,57.70
2018-02-10T20:13:27.871Z,57.60
2018-02-10T20:15:57.230Z,57.50
2018-02-10T20:18:25.792Z,57.80
2018-02-10T20:20:55.262Z,57.60
2018-02-10T20:23:23.142Z,57.60
2018-02-10T20:25:51.132Z,57.70
2018-02-10T20:28:20.177Z,58.30
2018-02-10T20:30:48.119Z,58.30
2018-02-10T20:33:16.237Z,58.30
2018-02-10T20:35:45.330Z,57.90
2018-02-10T20:38:13.210Z,57.90
2018-02-10T20:40:40.891Z,57.90
2018-02-10T20:43:09.676Z,57.80
2018-02-10T20:45:38.849Z,57.90
2018-02-10T20:48:07.462Z,57.90
2018-02-10T20:50:36.930Z,58.00
2018-02-10T20:53:05.538Z,58.00
2018-02-10T20:55:34.029Z,58.10
2018-02-10T20:58:02.545Z,57.90
2018-02-10T21:00:30.902Z,58.10
2018-02-10T21:02:59.419Z,58.30
2018-02-10T21:05:27.439Z,57.90
2018-02-10T21:07:55.192Z,58.00
2018-02-10T21:10:23.837Z,57.80
2018-02-10T21:12:51.600Z,57.80
2018-02-10T21:15:19.467Z,57.80
2018-02-10T21:17:47.536Z,57.60
2018-02-10T21:20:15.300Z,57.60
2018-02-10T21:22:43.061Z,57.60
2018-02-10T21:25:10.827Z,57.80
2018-02-10T21:27:39.238Z,57.60
2018-02-10T21:30:07.025Z,58.00
2018-02-10T21:32:35.652Z,57.90
2018-02-10T21:35:03.419Z,57.80
2018-02-10T21:37:31.098Z,57.80
2018-02-10T21:39:59.658Z,58.00
2018-02-10T21:42:27.527Z,58.00
2018-02-10T21:44:55.391Z,57.90
2018-02-10T21:47:23.158Z,57.70
2018-02-10T21:49:52.150Z,57.80
2018-02-10T21:52:20.418Z,58.00
2018-02-10T21:54:48.506Z,58.10
2018-02-10T21:57:16.299Z,58.00
2018-02-10T21:59:44.124Z,57.90
2018-02-10T22:02:11.954Z,58.10
2018-02-10T22:04:39.748Z,58.40
2018-02-10T22:07:09.428Z,58.60
2018-02-10T22:09:37.216Z,58.80
2018-02-10T22:12:05.787Z,58.90
2018-02-10T22:17:28.567Z,59.00
2018-02-10T22:19:57.150Z,59.30
2018-02-10T22:22:35.410Z,59.20
2018-02-10T22:25:04.735Z,58.90
2018-02-10T22:27:40.152Z,58.90
2018-02-10T22:32:47.712Z,58.70
2018-02-10T22:35:17.087Z,58.80
2018-02-10T22:37:44.814Z,58.90
2018-02-10T22:40:12.950Z,58.90
2018-02-10T22:42:42.367Z,58.80
2018-02-10T22:45:10.667Z,58.70
2018-02-10T22:47:39.945Z,58.80
2018-02-10T22:50:10.897Z,58.60
2018-02-10T22:52:39.356Z,58.60
2018-02-10T22:55:07.386Z,58.60
2018-02-10T22:57:35.686Z,58.70
2018-02-10T23:00:03.573Z,59.10
2018-02-10T23:02:31.854Z,59.30
2018-02-10T23:05:01.442Z,59.30
2018-02-10T23:07:29.120Z,59.30
2018-02-10T23:09:56.962Z,59.40
2018-02-10T23:12:25.424Z,59.60
2018-02-10T23:14:53.677Z,59.70
2018-02-10T23:17:21.353Z,59.80
2018-02-10T23:19:49.142Z,59.90
2018-02-10T23:22:17.015Z,60.70
2018-02-10T23:24:45.490Z,61.90
2018-02-10T23:27:13.398Z,61.60
2018-02-10T23:29:41.941Z,63.10
2018-02-10T23:32:09.733Z,63.10
2018-02-10T23:34:39.203Z,63.80
2018-02-10T23:37:06.901Z,63.80
2018-02-10T23:39:35.554Z,63.90
2018-02-10T23:42:03.557Z,63.90
2018-02-10T23:44:32.005Z,63.80
2018-02-10T23:46:59.721Z,63.80
2018-02-10T23:49:27.459Z,64.30
2018-02-10T23:51:56.251Z,64.50
2018-02-10T23:54:24.090Z,64.50
2018-02-10T23:56:52.598Z,64.30
2018-02-10T23:59:21.264Z,64.20
